createdAt,value
2022-10-17T00:00:01.074Z,113.80
2022-10-17T00:02:28.215Z,126.65
2022-10-17T00:04:55.490Z,122.75
2022-10-17T00:07:22.701Z,129.07
2022-10-17T00:09:49.779Z,113.50
2022-10-17T00:12:16.879Z,115.72
2022-10-17T00:14:44.012Z,108.50
2022-10-17T00:17:11.151Z,110.70
2022-10-17T00:19:38.072Z,111.40
2022-10-17T00:22:04.957Z,112.32
2022-10-17T00:24:32.446Z,110.60
2022-10-17T00:27:00.026Z,108.07
2022-10-17T00:29:28.017Z,111.93
2022-10-17T00:31:56.495Z,104.93
2022-10-17T00:34:24.842Z,104.00
2022-10-17T00:36:52.214Z,99.65
2022-10-17T00:39:19.908Z,99.78
2022-10-17T00:41:47.134Z,97.60
2022-10-17T00:44:32.593Z,97.30
2022-10-17T00:47:04.126Z,107.00
2022-10-17T00:49:34.933Z,103.10
2022-10-17T00:52:06.411Z,98.22
2022-10-17T00:54:36.911Z,97.07
2022-10-17T00:57:04.930Z,100.25
2022-10-17T00:59:34.370Z,108.93
2022-10-17T01:02:10.452Z,104.95
2022-10-17T01:04:43.006Z,122.50
2022-10-17T01:07:10.668Z,107.57
2022-10-17T01:09:38.721Z,107.57
2022-10-17T01:12:14.522Z,99.47
2022-10-17T01:14:41.419Z,103.10
2022-10-17T01:17:30.268Z,191.30
2022-10-17T01:20:06.057Z,111.18
2022-10-17T01:22:41.198Z,142.68
2022-10-17T01:25:23.868Z,112.25
2022-10-17T01:28:12.616Z,115.15
2022-10-17T01:31:00.584Z,111.95
2022-10-17T01:33:59.939Z,104.38
2022-10-17T01:36:50.949Z,96.57
2022-10-17T01:39:22.715Z,101.93
2022-10-17T01:42:04.436Z,110.00
2022-10-17T01:45:03.321Z,111.97
2022-10-17T01:47:32.864Z,332.65
2022-10-17T01:50:12.344Z,121.55
2022-10-17T01:52:45.213Z,125.93
2022-10-17T01:55:27.227Z,125.82
2022-10-17T02:00:32.673Z,107.90
2022-10-17T02:03:02.811Z,113.72
2022-10-17T02:05:37.761Z,107.72
2022-10-17T02:08:05.343Z,149.00
2022-10-17T02:10:44.133Z,140.32
2022-10-17T02:13:45.341Z,131.32
2022-10-17T02:17:02.901Z,132.52
2022-10-17T02:19:37.995Z,187.27
2022-10-17T02:22:14.303Z,174.50
2022-10-17T02:25:09.690Z,111.15
2022-10-17T02:28:06.209Z,104.13
2022-10-17T02:30:48.374Z,100.82
2022-10-17T02:33:24.280Z,125.55
2022-10-17T02:35:56.442Z,103.68
2022-10-17T02:38:24.911Z,110.40
2022-10-17T02:40:53.900Z,100.05
2022-10-17T02:43:21.944Z,103.00
2022-10-17T02:45:50.171Z,128.95
2022-10-17T02:48:34.698Z,205.27
2022-10-17T02:51:24.312Z,138.65
2022-10-17T02:53:58.731Z,191.27
2022-10-17T02:56:27.422Z,144.00
2022-10-17T02:58:58.852Z,284.33
2022-10-17T03:01:26.276Z,349.20
2022-10-17T03:04:08.620Z,138.50
2022-10-17T03:06:35.600Z,256.90
2022-10-17T03:09:02.421Z,169.57
2022-10-17T03:11:29.330Z,199.85
2022-10-17T03:13:56.345Z,193.45
2022-10-17T03:16:23.260Z,178.00
2022-10-17T03:18:50.326Z,144.48
2022-10-17T03:21:17.221Z,158.57
2022-10-17T03:23:43.991Z,160.10
2022-10-17T03:26:10.916Z,125.28
2022-10-17T03:28:37.773Z,156.82
2022-10-17T03:31:13.984Z,163.73
2022-10-17T03:33:40.796Z,152.80
2022-10-17T03:36:13.561Z,178.00
2022-10-17T03:38:40.651Z,149.55
2022-10-17T03:41:07.977Z,182.55
2022-10-17T03:43:35.215Z,149.65
2022-10-17T03:46:02.753Z,133.52
2022-10-17T03:48:30.937Z,210.32
2022-10-17T03:51:03.261Z,148.20
2022-10-17T03:53:30.179Z,130.18
2022-10-17T03:55:57.909Z,136.68
2022-10-17T03:58:24.751Z,115.60
2022-10-17T04:00:52.512Z,218.82
2022-10-17T04:03:19.348Z,155.73
2022-10-17T04:05:46.199Z,133.18
2022-10-17T04:08:13.012Z,182.07
2022-10-17T04:10:39.787Z,136.65
2022-10-17T04:13:06.832Z,243.30
2022-10-17T04:15:33.586Z,132.88
2022-10-17T04:18:00.373Z,142.43
2022-10-17T04:20:27.257Z,195.75
2022-10-17T04:22:54.048Z,200.63
2022-10-17T04:25:20.842Z,178.35
2022-10-17T04:27:49.043Z,164.88
2022-10-17T04:30:16.135Z,164.90
2022-10-17T04:32:42.933Z,148.82
2022-10-17T04:35:13.020Z,127.00
2022-10-17T04:37:39.787Z,135.75
2022-10-17T04:40:07.250Z,147.38
2022-10-17T04:42:34.085Z,215.68
2022-10-17T04:45:00.907Z,161.00
2022-10-17T04:47:27.662Z,130.57
2022-10-17T04:49:54.460Z,170.65
2022-10-17T04:52:21.305Z,199.43
2022-10-17T04:54:48.102Z,162.80
2022-10-17T04:57:15.238Z,141.15
2022-10-17T04:59:42.049Z,115.22
2022-10-17T05:02:08.956Z,102.22
2022-10-17T05:04:35.819Z,99.28
2022-10-17T05:07:02.711Z,93.55
2022-10-17T05:09:30.066Z,86.65
2022-10-17T05:11:56.936Z,94.00
2022-10-17T05:14:23.902Z,143.30
2022-10-17T05:16:50.810Z,150.77
2022-10-17T05:19:18.589Z,118.05
2022-10-17T05:21:45.454Z,116.32
2022-10-17T05:24:14.991Z,95.32
2022-10-17T05:26:42.273Z,86.55
2022-10-17T05:29:20.967Z,84.60
2022-10-17T05:31:53.853Z,100.40
2022-10-17T05:34:20.922Z,84.82
2022-10-17T05:36:47.725Z,86.32
2022-10-17T05:39:15.218Z,91.32
2022-10-17T05:41:41.975Z,95.15
2022-10-17T05:44:08.752Z,96.88
2022-10-17T05:46:35.912Z,123.30
2022-10-17T05:49:10.635Z,88.38
2022-10-17T05:51:46.253Z,97.53
2022-10-17T05:54:12.988Z,88.57
2022-10-17T05:56:39.939Z,95.28
2022-10-17T05:59:06.767Z,93.28
2022-10-17T06:01:33.638Z,86.13
2022-10-17T06:04:00.434Z,94.78
2022-10-17T06:06:27.304Z,74.15
2022-10-17T06:08:54.070Z,74.07
2022-10-17T06:11:20.813Z,75.47
2022-10-17T06:13:47.600Z,78.07
2022-10-17T06:16:14.392Z,74.15
2022-10-17T06:18:41.173Z,81.30
2022-10-17T06:21:10.397Z,73.85
2022-10-17T06:23:37.424Z,70.72
2022-10-17T06:26:06.107Z,74.32
2022-10-17T06:28:33.480Z,87.63
2022-10-17T06:31:05.320Z,85.93
2022-10-17T06:36:07.772Z,85.47
2022-10-17T06:41:19.481Z,99.63
2022-10-17T06:43:47.457Z,98.20
2022-10-17T06:46:16.662Z,98.40
2022-10-17T06:48:47.056Z,97.80
2022-10-17T06:51:14.234Z,109.80
2022-10-17T06:53:44.054Z,110.30
2022-10-17T06:56:11.919Z,98.10
2022-10-17T06:58:40.195Z,98.97
2022-10-17T07:04:00.716Z,98.35
2022-10-17T07:06:29.704Z,90.00
2022-10-17T07:08:57.088Z,87.38
2022-10-17T07:11:27.993Z,91.40
2022-10-17T07:13:54.888Z,106.35
2022-10-17T07:16:22.010Z,110.32
2022-10-17T07:18:52.501Z,112.78
2022-10-17T07:21:19.630Z,93.22
2022-10-17T07:23:46.991Z,97.68
2022-10-17T07:26:16.890Z,115.68
2022-10-17T07:36:49.063Z,127.80
2022-10-17T07:39:18.401Z,120.35
2022-10-17T07:41:45.804Z,163.18
2022-10-17T07:44:14.078Z,174.57
2022-10-17T07:46:41.706Z,161.30
2022-10-17T07:49:13.553Z,134.93
2022-10-17T07:51:40.451Z,183.05
2022-10-17T07:56:55.505Z,143.15
2022-10-17T07:59:23.379Z,144.52
2022-10-17T08:01:50.562Z,139.32
2022-10-17T08:04:18.195Z,135.00
2022-10-17T08:06:45.288Z,135.15
2022-10-17T08:09:12.717Z,132.32
2022-10-17T08:11:39.774Z,132.55
2022-10-17T08:14:07.548Z,124.35
2022-10-17T08:16:34.566Z,117.55
2022-10-17T08:19:01.789Z,123.07
2022-10-17T08:21:29.330Z,115.93
2022-10-17T08:23:56.984Z,129.18
2022-10-17T08:26:25.742Z,126.03
2022-10-17T08:28:55.191Z,121.60
2022-10-17T08:31:23.076Z,124.22
2022-10-17T08:33:50.764Z,116.97
2022-10-17T08:36:20.281Z,114.25
2022-10-17T08:38:52.853Z,113.50
2022-10-17T08:41:45.147Z,107.95
2022-10-17T08:44:28.472Z,96.72
2022-10-17T08:47:02.165Z,98.25
2022-10-17T08:49:38.671Z,88.60
2022-10-17T08:52:34.752Z,79.50
2022-10-17T08:55:11.583Z,74.03
2022-10-17T08:57:38.853Z,79.13
2022-10-17T09:00:17.156Z,77.47
2022-10-17T09:03:05.052Z,69.45
2022-10-17T09:05:42.234Z,66.53
2022-10-17T09:08:33.608Z,64.80
2022-10-17T09:11:18.463Z,63.85
2022-10-17T09:14:03.450Z,66.45
2022-10-17T09:16:54.664Z,54.42
2022-10-17T09:19:32.216Z,55.60
2022-10-17T09:22:04.414Z,51.60
2022-10-17T09:24:44.190Z,56.63
2022-10-17T09:27:41.533Z,51.97
2022-10-17T09:51:33.263Z,40.17
2022-10-17T09:54:04.218Z,41.95
2022-10-17T10:05:07.508Z,40.05
2022-10-17T10:07:39.546Z,37.47
2022-10-17T10:20:43.342Z,38.35
2022-10-17T10:23:18.781Z,44.15
2022-10-17T10:31:08.944Z,37.70
2022-10-17T10:33:41.958Z,39.50
2022-10-17T10:36:12.346Z,34.80
2022-10-17T10:38:42.703Z,44.45
2022-10-17T10:41:11.453Z,39.78
2022-10-17T10:46:29.141Z,37.15
2022-10-17T11:08:01.557Z,36.83
2022-10-17T11:16:17.534Z,40.97
2022-10-17T11:19:26.018Z,33.75
2022-10-17T11:22:04.976Z,35.03
2022-10-17T11:24:57.239Z,36.42
2022-10-17T11:27:25.007Z,35.03
2022-10-17T11:29:52.109Z,33.95
2022-10-17T11:32:28.690Z,38.88
2022-10-17T11:35:02.366Z,29.90
2022-10-17T11:37:39.513Z,32.55
2022-10-17T11:40:32.267Z,36.20
2022-10-17T11:43:09.816Z,32.85
2022-10-17T11:45:46.250Z,41.28
2022-10-17T11:48:26.115Z,35.05
2022-10-17T11:54:28.448Z,32.67
2022-10-17T11:57:43.064Z,30.58
2022-10-17T12:00:35.784Z,34.53
2022-10-17T12:03:32.579Z,32.53
2022-10-17T12:06:35.313Z,33.85
2022-10-17T12:09:37.417Z,42.67
2022-10-17T12:14:34.667Z,40.35
2022-10-17T12:25:06.577Z,36.15
2022-10-17T12:27:36.402Z,37.65
2022-10-17T12:30:22.963Z,38.83
2022-10-17T12:35:39.420Z,39.40
2022-10-17T12:38:21.224Z,232.82
2022-10-17T12:52:05.940Z,31.95
2022-10-17T12:57:39.200Z,34.58
2022-10-17T13:00:18.907Z,34.40
2022-10-17T13:05:37.137Z,37.85
2022-10-17T13:21:37.627Z,34.90
2022-10-17T13:37:38.188Z,36.55
2022-10-17T13:40:24.825Z,41.33
2022-10-17T13:42:55.416Z,38.20
2022-10-17T13:48:18.212Z,33.42
2022-10-17T13:50:50.390Z,35.22
2022-10-17T13:53:26.917Z,36.25
2022-10-17T13:56:09.783Z,37.10
2022-10-17T13:58:57.470Z,35.65
2022-10-17T14:01:30.001Z,38.28
2022-10-17T14:04:08.505Z,39.60
2022-10-17T14:06:47.928Z,41.35
2022-10-17T14:09:21.800Z,37.08
2022-10-17T14:12:11.264Z,40.22
2022-10-17T14:15:08.758Z,34.53
2022-10-17T14:17:31.314Z,44.60
2022-10-17T14:20:40.427Z,44.40
2022-10-17T14:23:17.500Z,44.33
2022-10-17T14:25:40.899Z,42.53
2022-10-17T14:28:12.732Z,40.90
2022-10-17T14:30:56.634Z,40.45
2022-10-17T14:33:29.237Z,42.97
2022-10-17T14:35:58.770Z,42.53
2022-10-17T14:38:27.531Z,40.00
2022-10-17T14:44:08.985Z,42.17
2022-10-17T14:46:39.079Z,46.53
2022-10-17T14:49:23.257Z,42.47
2022-10-17T14:52:16.762Z,43.88
2022-10-17T14:54:48.441Z,49.45
2022-10-17T14:57:19.885Z,46.67
2022-10-17T14:59:55.308Z,59.08
2022-10-17T15:02:24.615Z,50.47
2022-10-17T15:04:52.225Z,50.70
2022-10-17T15:07:21.216Z,52.95
2022-10-17T15:09:50.321Z,60.90
2022-10-17T15:12:19.473Z,56.35
2022-10-17T15:14:48.501Z,50.65
2022-10-17T15:17:22.446Z,43.85
2022-10-17T15:19:50.784Z,51.08
2022-10-17T15:22:18.320Z,58.97
2022-10-17T15:24:48.514Z,53.88
2022-10-17T15:27:22.200Z,49.45
2022-10-17T15:32:34.071Z,57.05
2022-10-17T15:35:01.002Z,57.72
2022-10-17T15:37:35.485Z,50.05
2022-10-17T15:40:05.069Z,61.45
2022-10-17T15:42:32.593Z,50.63
2022-10-17T15:45:00.806Z,65.57
2022-10-17T15:47:34.310Z,50.33
2022-10-17T15:50:02.395Z,52.45
2022-10-17T15:52:30.089Z,53.80
2022-10-17T15:54:59.595Z,51.65
2022-10-17T15:57:34.047Z,54.10
2022-10-17T16:00:01.771Z,52.75
2022-10-17T16:02:29.248Z,53.78
2022-10-17T16:04:56.320Z,48.28
2022-10-17T16:07:23.407Z,64.85
2022-10-17T16:09:50.301Z,50.53
2022-10-17T16:12:29.169Z,55.30
2022-10-17T16:14:56.739Z,56.63
2022-10-17T16:17:23.779Z,55.45
2022-10-17T16:19:50.763Z,59.30
2022-10-17T16:22:23.414Z,61.85
2022-10-17T16:24:50.737Z,61.53
2022-10-17T16:27:17.614Z,60.97
2022-10-17T16:29:44.577Z,71.47
2022-10-17T16:32:11.399Z,63.65
2022-10-17T16:34:38.271Z,60.83
2022-10-17T16:37:05.056Z,60.00
2022-10-17T16:39:31.858Z,57.00
2022-10-17T16:41:58.808Z,59.65
2022-10-17T16:44:25.888Z,61.45
2022-10-17T16:46:52.699Z,53.45
2022-10-17T16:49:19.462Z,60.78
2022-10-17T16:51:46.351Z,59.78
2022-10-17T16:54:13.102Z,58.40
2022-10-17T16:56:39.888Z,64.03
2022-10-17T16:59:06.806Z,66.07
2022-10-17T17:01:33.649Z,68.07
2022-10-17T17:04:01.182Z,66.22
2022-10-17T17:06:29.537Z,62.05
2022-10-17T17:08:57.636Z,71.32
2022-10-17T17:11:26.260Z,69.75
2022-10-17T17:13:56.616Z,68.75
2022-10-17T17:16:25.753Z,75.78
2022-10-17T17:18:57.984Z,72.43
2022-10-17T17:21:24.929Z,67.75
2022-10-17T17:23:51.897Z,62.60
2022-10-17T17:26:23.204Z,67.03
2022-10-17T17:28:50.581Z,64.88
2022-10-17T17:31:23.460Z,64.80
2022-10-17T17:33:51.634Z,68.97
2022-10-17T17:36:22.275Z,98.05
2022-10-17T17:38:50.168Z,78.10
2022-10-17T17:41:19.014Z,65.80
2022-10-17T17:43:47.204Z,61.47
2022-10-17T17:46:16.647Z,67.25
2022-10-17T17:48:46.381Z,67.82
2022-10-17T17:51:20.674Z,66.97
2022-10-17T17:53:48.538Z,65.60
2022-10-17T17:56:18.717Z,68.47
2022-10-17T17:58:47.068Z,70.85
2022-10-17T18:01:19.158Z,69.88
2022-10-17T18:03:46.331Z,76.75
2022-10-17T18:06:13.706Z,73.00
2022-10-17T18:08:43.697Z,77.00
2022-10-17T18:11:10.686Z,67.43
2022-10-17T18:13:37.713Z,67.70
2022-10-17T18:16:13.181Z,67.03
2022-10-17T18:18:42.341Z,66.90
2022-10-17T18:21:11.236Z,65.60
2022-10-17T18:23:47.630Z,68.50
2022-10-17T18:26:15.161Z,65.43
2022-10-17T18:28:43.394Z,66.78
2022-10-17T18:31:24.493Z,73.82
2022-10-17T18:33:52.963Z,102.60
2022-10-17T18:36:21.048Z,91.90
2022-10-17T18:38:48.417Z,82.05
2022-10-17T18:41:21.003Z,68.82
2022-10-17T18:43:49.080Z,76.82
2022-10-17T18:46:18.928Z,95.25
2022-10-17T18:48:47.150Z,69.72
2022-10-17T18:51:15.721Z,69.20
2022-10-17T18:53:44.093Z,66.80
2022-10-17T18:56:11.534Z,73.32
2022-10-17T18:58:39.399Z,62.22
2022-10-17T19:01:10.811Z,56.88
2022-10-17T19:03:38.339Z,65.82
2022-10-17T19:06:07.970Z,63.20
2022-10-17T19:08:35.915Z,60.00
2022-10-17T19:11:14.068Z,73.13
2022-10-17T19:13:41.373Z,69.70
2022-10-17T19:16:10.519Z,63.63
2022-10-17T19:18:37.913Z,66.25
2022-10-17T19:21:07.024Z,69.65
2022-10-17T19:23:35.983Z,76.93
2022-10-17T19:26:11.907Z,66.93
2022-10-17T19:28:42.164Z,59.60
2022-10-17T19:31:09.142Z,58.17
2022-10-17T19:33:37.231Z,63.75
2022-10-17T19:36:07.791Z,55.53
2022-10-17T19:38:35.757Z,53.85
2022-10-17T19:41:10.648Z,55.40
2022-10-17T19:43:38.927Z,54.67
2022-10-17T19:46:08.437Z,65.15
2022-10-17T19:48:36.930Z,56.58
2022-10-17T19:51:08.897Z,62.00
2022-10-17T19:53:36.141Z,60.45
2022-10-17T19:56:03.682Z,53.75
2022-10-17T19:58:31.124Z,54.33
2022-10-17T20:01:01.223Z,61.20
2022-10-17T20:03:28.668Z,64.50
2022-10-17T20:05:55.811Z,61.85
2022-10-17T20:08:22.676Z,60.92
2022-10-17T20:10:49.467Z,63.60
2022-10-17T20:13:16.272Z,65.90
2022-10-17T20:15:43.062Z,78.45
2022-10-17T20:18:10.533Z,87.82
2022-10-17T20:20:37.951Z,87.50
2022-10-17T20:23:05.034Z,96.50
2022-10-17T20:25:33.462Z,74.97
2022-10-17T20:28:00.623Z,79.85
2022-10-17T20:30:27.379Z,83.97
2022-10-17T20:32:55.720Z,79.78
2022-10-17T20:35:22.871Z,67.28
2022-10-17T20:37:50.059Z,61.78
2022-10-17T20:40:34.083Z,68.82
2022-10-17T20:43:02.011Z,61.80
2022-10-17T20:45:43.687Z,51.97
2022-10-17T20:48:16.200Z,54.95
2022-10-17T20:50:43.953Z,58.67
2022-10-17T20:53:35.510Z,65.20
2022-10-17T20:56:07.843Z,61.05
2022-10-17T20:58:35.303Z,62.20
2022-10-17T21:01:07.205Z,52.35
2022-10-17T21:06:09.956Z,58.53
2022-10-17T21:08:36.708Z,60.17
2022-10-17T21:11:13.733Z,59.45
2022-10-17T21:13:41.675Z,53.47
2022-10-17T21:16:14.638Z,48.63
2022-10-17T21:18:41.880Z,54.25
2022-10-17T21:21:14.835Z,50.67
2022-10-17T21:23:43.603Z,46.75
2022-10-17T21:26:12.760Z,48.78
2022-10-17T21:28:40.832Z,55.75
2022-10-17T21:31:11.825Z,49.67
2022-10-17T21:33:39.534Z,51.27
2022-10-17T21:36:07.081Z,56.17
2022-10-17T21:38:38.549Z,49.97
2022-10-17T21:41:06.801Z,45.17
2022-10-17T21:43:34.752Z,53.00
2022-10-17T21:46:07.967Z,50.25
2022-10-17T21:48:35.628Z,55.33
2022-10-17T21:51:04.703Z,50.42
2022-10-17T21:53:31.681Z,48.30
2022-10-17T21:56:03.171Z,55.17
2022-10-17T21:58:30.428Z,53.97
2022-10-17T22:01:28.804Z,51.35
2022-10-17T22:03:59.014Z,43.75
2022-10-17T22:06:43.744Z,45.85
2022-10-17T22:09:24.172Z,44.65
2022-10-17T22:11:54.926Z,45.03
2022-10-17T22:14:23.500Z,46.75
2022-10-17T22:16:51.049Z,45.42
2022-10-17T22:19:21.465Z,50.42
2022-10-17T22:21:48.671Z,48.25
2022-10-17T22:24:17.650Z,45.22
2022-10-17T22:26:44.690Z,51.35
2022-10-17T22:29:12.108Z,40.25
2022-10-17T22:31:39.222Z,37.53
2022-10-17T22:34:06.901Z,40.25
2022-10-17T22:36:34.921Z,43.25
2022-10-17T22:39:01.957Z,40.10
2022-10-17T22:41:28.906Z,48.97
2022-10-17T22:43:55.740Z,40.65
2022-10-17T22:46:22.613Z,50.22
2022-10-17T22:48:49.437Z,50.50
2022-10-17T22:51:16.401Z,40.95
2022-10-17T22:53:43.290Z,44.97
2022-10-17T22:56:20.152Z,44.38
2022-10-17T22:58:47.551Z,41.10
2022-10-17T23:01:17.349Z,41.90
2022-10-17T23:03:44.243Z,46.33
2022-10-17T23:06:11.481Z,47.97
2022-10-17T23:08:38.882Z,45.45
2022-10-17T23:11:06.532Z,41.90
2022-10-17T23:13:33.516Z,44.65
2022-10-17T23:16:00.507Z,46.15
2022-10-17T23:18:27.514Z,45.63
2022-10-17T23:20:55.251Z,49.45
2022-10-17T23:23:22.303Z,48.83
2022-10-17T23:25:49.576Z,59.80
2022-10-17T23:28:17.334Z,51.08
2022-10-17T23:30:44.479Z,48.45
2022-10-17T23:33:12.927Z,55.33
2022-10-17T23:35:40.596Z,45.83
2022-10-17T23:38:07.474Z,47.38
2022-10-17T23:40:35.314Z,49.25
2022-10-17T23:43:03.061Z,43.33
2022-10-17T23:45:34.610Z,42.83
2022-10-17T23:48:03.096Z,44.88
2022-10-17T23:50:29.868Z,48.70
2022-10-17T23:52:56.642Z,43.25
2022-10-17T23:55:23.424Z,49.47
2022-10-17T23:57:50.224Z,42.50
